createdAt,value
2016-10-01T04:00:18.716Z,57.15
2016-10-01T04:00:44.262Z,56.87
2016-10-01T04:01:09.864Z,56.96
2016-10-01T04:01:35.417Z,57.06
2016-10-01T04:02:01.066Z,57.06
2016-10-01T04:02:26.784Z,56.87
2016-10-01T04:02:52.350Z,56.96
2016-10-01T04:03:17.917Z,56.87
2016-10-01T04:03:43.492Z,56.67
2016-10-01T04:04:09.064Z,56.58
2016-10-01T04:04:34.637Z,56.67
2016-10-01T04:05:00.214Z,56.58
2016-10-01T04:05:25.975Z,56.96
2016-10-01T04:05:51.535Z,56.58
2016-10-01T04:06:17.096Z,56.48
2016-10-01T04:06:42.657Z,56.96
2016-10-01T04:07:08.224Z,56.77
2016-10-01T04:07:33.788Z,56.58
2016-10-01T04:07:59.355Z,56.77
2016-10-01T04:08:24.923Z,56.96
2016-10-01T04:08:50.483Z,56.48
2016-10-01T04:09:16.123Z,56.77
2016-10-01T04:09:41.732Z,56.58
2016-10-01T04:10:07.287Z,56.48
2016-10-01T04:10:32.845Z,56.77
2016-10-01T04:10:58.419Z,56.67
2016-10-01T04:11:23.997Z,56.77
2016-10-01T04:11:49.707Z,56.58
2016-10-01T04:12:15.281Z,56.77
2016-10-01T04:12:40.847Z,56.67
2016-10-01T04:13:06.405Z,56.48
2016-10-01T04:13:31.988Z,56.87
2016-10-01T04:13:57.564Z,56.96
2016-10-01T04:14:23.116Z,56.87
2016-10-01T04:14:48.678Z,56.58
2016-10-01T04:15:14.347Z,56.48
2016-10-01T04:15:39.913Z,56.77
2016-10-01T04:16:05.478Z,56.58
2016-10-01T04:16:31.020Z,56.96
2016-10-01T04:16:56.564Z,56.87
2016-10-01T04:17:22.147Z,56.96
2016-10-01T04:17:47.786Z,56.96
2016-10-01T04:18:13.376Z,56.96
2016-10-01T04:18:38.931Z,56.96
2016-10-01T04:19:04.505Z,57.06
2016-10-01T04:19:30.102Z,56.67
2016-10-01T04:19:55.667Z,57.06
2016-10-01T04:20:21.239Z,56.58
2016-10-01T04:20:46.831Z,56.96
2016-10-01T04:21:12.393Z,57.06
2016-10-01T04:21:37.959Z,57.06
2016-10-01T04:22:03.621Z,57.06
2016-10-01T04:22:29.304Z,57.25
2016-10-01T04:22:54.880Z,56.96
2016-10-01T04:23:20.437Z,57.15
2016-10-01T04:23:46.055Z,57.15
2016-10-01T04:24:11.631Z,57.25
2016-10-01T04:24:37.207Z,57.15
2016-10-01T04:25:02.763Z,57.25
2016-10-01T04:25:28.324Z,57.06
2016-10-01T04:25:53.878Z,57.06
2016-10-01T04:26:19.467Z,57.15
2016-10-01T04:26:45.025Z,57.06
2016-10-01T04:27:10.652Z,57.06
2016-10-01T04:27:36.214Z,56.96
2016-10-01T04:28:01.753Z,57.06
2016-10-01T04:28:27.322Z,57.06
2016-10-01T04:28:53.022Z,56.96
2016-10-01T04:29:18.596Z,57.15
2016-10-01T04:29:44.164Z,57.15
2016-10-01T04:30:09.831Z,57.35
2016-10-01T04:30:35.390Z,57.35
2016-10-01T04:31:00.952Z,57.25
2016-10-01T04:31:26.508Z,56.96
2016-10-01T04:31:52.177Z,56.96
2016-10-01T04:32:17.755Z,56.96
2016-10-01T04:32:43.324Z,57.06
2016-10-01T04:33:08.881Z,57.06
2016-10-01T04:33:34.457Z,57.06
2016-10-01T04:34:00.028Z,57.25
2016-10-01T04:34:25.585Z,57.25
2016-10-01T04:34:51.165Z,57.15
2016-10-01T04:35:16.775Z,57.06
2016-10-01T04:35:42.343Z,56.96
2016-10-01T04:36:07.902Z,57.25
2016-10-01T04:36:33.575Z,57.15
2016-10-01T04:36:59.194Z,57.25
2016-10-01T04:37:24.770Z,57.25
2016-10-01T04:37:50.374Z,57.25
2016-10-01T04:38:15.985Z,56.58
2016-10-01T04:38:41.535Z,57.06
2016-10-01T04:39:07.088Z,56.67
2016-10-01T04:39:32.655Z,57.25
2016-10-01T04:39:58.227Z,57.15
2016-10-01T04:40:23.824Z,57.15
2016-10-01T04:40:49.383Z,57.15
2016-10-01T04:41:14.956Z,57.35
2016-10-01T04:41:40.514Z,56.58
2016-10-01T04:42:06.086Z,57.15
2016-10-01T04:42:31.641Z,56.58
2016-10-01T04:42:57.213Z,57.06
2016-10-01T04:43:22.775Z,57.15
2016-10-01T04:43:48.337Z,57.15
2016-10-01T04:44:13.961Z,56.67
2016-10-01T04:44:39.525Z,57.25
2016-10-01T04:45:05.095Z,56.58
2016-10-01T04:45:30.658Z,57.06
2016-10-01T04:45:56.215Z,57.25
2016-10-01T04:46:21.801Z,56.96
2016-10-01T04:46:47.354Z,57.25
2016-10-01T04:47:12.903Z,56.87
2016-10-01T04:47:38.660Z,56.87
2016-10-01T04:48:04.223Z,57.25
2016-10-01T04:48:29.988Z,57.25
2016-10-01T04:48:55.603Z,57.25
2016-10-01T04:49:21.166Z,57.06
2016-10-01T04:49:46.789Z,57.35
2016-10-01T04:50:12.400Z,57.25
2016-10-01T04:50:37.966Z,57.15
2016-10-01T04:51:03.547Z,57.25
2016-10-01T04:51:29.119Z,57.06
2016-10-01T04:51:54.690Z,56.96
2016-10-01T04:52:20.306Z,57.06
2016-10-01T04:52:45.954Z,56.96
2016-10-01T04:53:11.536Z,56.96
2016-10-01T04:53:37.104Z,57.25
2016-10-01T04:54:02.666Z,57.25
2016-10-01T04:54:28.240Z,57.15
2016-10-01T04:54:53.801Z,57.25
2016-10-01T04:55:19.412Z,57.25
2016-10-01T04:55:44.970Z,56.77
2016-10-01T04:56:10.568Z,56.77
2016-10-01T04:56:36.135Z,57.25
2016-10-01T04:57:01.698Z,57.25
2016-10-01T04:57:27.357Z,57.15
2016-10-01T04:57:53.011Z,57.06
2016-10-01T04:58:18.585Z,56.87
2016-10-01T04:58:44.164Z,57.15
2016-10-01T04:59:09.738Z,56.87
2016-10-01T04:59:35.281Z,57.15
2016-10-01T05:00:00.849Z,57.06
2016-10-01T05:00:26.421Z,56.96
2016-10-01T05:00:51.967Z,57.25
2016-10-01T05:01:17.552Z,57.25
2016-10-01T05:01:43.172Z,57.15
2016-10-01T05:02:08.732Z,57.15
2016-10-01T05:02:34.354Z,56.67
2016-10-01T05:03:00.038Z,56.96
2016-10-01T05:03:25.599Z,56.77
2016-10-01T05:03:51.155Z,56.87
2016-10-01T05:04:16.736Z,56.87
2016-10-01T05:04:42.327Z,57.06
2016-10-01T05:05:07.897Z,57.15
2016-10-01T05:05:33.526Z,56.87
2016-10-01T05:05:59.143Z,57.25
2016-10-01T05:06:24.716Z,57.25
2016-10-01T05:06:50.312Z,57.25
2016-10-01T05:07:15.866Z,57.25
2016-10-01T05:07:41.415Z,57.25
2016-10-01T05:08:06.974Z,57.25
2016-10-01T05:08:32.555Z,57.15
2016-10-01T05:08:58.106Z,57.15
2016-10-01T05:09:23.702Z,57.25
2016-10-01T05:09:49.353Z,56.87
2016-10-01T05:10:14.916Z,57.25
2016-10-01T05:10:40.476Z,57.15
2016-10-01T05:11:06.036Z,57.06
2016-10-01T05:11:31.596Z,57.15
2016-10-01T05:11:57.162Z,57.06
2016-10-01T05:12:22.734Z,56.87
2016-10-01T05:12:48.306Z,56.96
2016-10-01T05:13:13.926Z,57.15
2016-10-01T05:13:39.484Z,57.25
2016-10-01T05:14:05.064Z,56.77
2016-10-01T05:14:30.701Z,56.67
2016-10-01T05:14:56.294Z,56.58
2016-10-01T05:15:21.862Z,56.77
2016-10-01T05:15:47.464Z,56.87
2016-10-01T05:16:13.033Z,57.25
2016-10-01T05:16:38.596Z,56.96
2016-10-01T05:17:04.168Z,57.15
2016-10-01T05:17:29.748Z,57.06
2016-10-01T05:17:55.292Z,57.25
2016-10-01T05:18:20.907Z,56.58
2016-10-01T05:18:46.469Z,57.15
2016-10-01T05:19:12.063Z,57.15
2016-10-01T05:19:37.688Z,57.06
2016-10-01T05:20:03.281Z,57.25
2016-10-01T05:20:28.858Z,57.25
2016-10-01T05:20:54.438Z,57.15
2016-10-01T05:21:20.068Z,57.06
2016-10-01T05:21:45.644Z,56.87
2016-10-01T05:22:11.205Z,56.96
2016-10-01T05:22:36.788Z,56.87
2016-10-01T05:23:02.382Z,56.96
2016-10-01T05:23:27.936Z,57.06
2016-10-01T05:23:53.505Z,56.87
2016-10-01T05:24:19.065Z,57.06
2016-10-01T05:24:44.651Z,57.06
2016-10-01T05:25:10.244Z,57.25
2016-10-01T05:25:35.823Z,56.96
2016-10-01T05:26:01.396Z,57.06
2016-10-01T05:26:27.067Z,56.96
2016-10-01T05:26:52.646Z,57.25
2016-10-01T05:27:18.227Z,57.15
2016-10-01T05:27:43.788Z,57.25
2016-10-01T05:28:09.465Z,57.06
2016-10-01T05:28:35.028Z,56.67
2016-10-01T05:29:00.578Z,57.15
2016-10-01T05:29:26.166Z,56.67
2016-10-01T05:29:51.735Z,57.25
2016-10-01T05:30:17.297Z,56.96
2016-10-01T05:30:42.857Z,57.15
2016-10-01T05:31:08.421Z,56.96
2016-10-01T05:31:34.062Z,57.06
2016-10-01T05:31:59.644Z,56.96
2016-10-01T05:32:25.214Z,56.96
2016-10-01T05:32:50.865Z,56.77
2016-10-01T05:33:16.456Z,56.96
2016-10-01T05:33:42.045Z,57.15
2016-10-01T05:34:07.674Z,56.96
2016-10-01T05:34:33.371Z,56.77
2016-10-01T05:34:58.935Z,56.96
2016-10-01T05:35:24.506Z,56.96
2016-10-01T05:35:50.078Z,56.67
2016-10-01T05:36:15.663Z,56.87
2016-10-01T05:36:41.266Z,56.96
2016-10-01T05:37:06.828Z,56.48
2016-10-01T05:37:32.396Z,56.87
2016-10-01T05:37:57.968Z,56.48
2016-10-01T05:38:23.656Z,56.48
2016-10-01T05:38:49.265Z,56.87
2016-10-01T05:39:14.820Z,56.58
2016-10-01T05:39:40.364Z,56.58
2016-10-01T05:40:05.943Z,56.58
2016-10-01T05:40:31.518Z,56.48
2016-10-01T05:40:57.086Z,56.87
2016-10-01T05:41:22.656Z,56.58
2016-10-01T05:41:48.237Z,56.58
2016-10-01T05:42:13.815Z,56.77
2016-10-01T05:42:39.374Z,56.58
2016-10-01T05:43:04.941Z,56.96
2016-10-01T05:43:30.495Z,57.06
2016-10-01T05:43:56.073Z,56.96
2016-10-01T05:44:21.647Z,56.58
2016-10-01T05:44:47.215Z,56.96
2016-10-01T05:45:12.785Z,56.77
2016-10-01T05:45:38.359Z,56.96
2016-10-01T05:46:03.916Z,56.77
2016-10-01T05:46:29.537Z,56.67
2016-10-01T05:46:55.114Z,56.58
2016-10-01T05:47:20.696Z,56.77
2016-10-01T05:47:46.266Z,56.77
2016-10-01T05:48:11.822Z,56.67
2016-10-01T05:48:37.394Z,56.67
2016-10-01T05:49:02.964Z,56.48
2016-10-01T05:49:28.556Z,56.96
2016-10-01T05:49:54.119Z,56.58
2016-10-01T05:50:19.709Z,56.58
2016-10-01T05:50:45.382Z,56.67
2016-10-01T05:51:10.944Z,56.58
2016-10-01T05:51:36.504Z,56.58
2016-10-01T05:52:02.071Z,56.77
2016-10-01T05:52:27.662Z,56.58
2016-10-01T05:52:53.201Z,56.77
2016-10-01T05:53:18.787Z,56.87
2016-10-01T05:53:44.363Z,56.77
2016-10-01T05:54:09.932Z,56.96
2016-10-01T05:54:35.514Z,56.77
2016-10-01T05:55:01.081Z,56.77
2016-10-01T05:55:26.635Z,56.87
2016-10-01T05:55:52.196Z,56.77
2016-10-01T05:56:17.756Z,56.87
2016-10-01T05:56:43.342Z,56.87
2016-10-01T05:57:08.911Z,57.06
2016-10-01T05:57:34.487Z,56.77
2016-10-01T05:58:00.049Z,56.96
2016-10-01T05:58:25.724Z,56.87
2016-10-01T05:58:51.285Z,56.77
2016-10-01T05:59:16.859Z,56.96
2016-10-01T05:59:42.433Z,56.87
2016-10-01T06:00:56.043Z,56.77
2016-10-01T06:01:21.620Z,56.77
2016-10-01T06:01:47.316Z,56.58
2016-10-01T06:02:13.217Z,56.77
2016-10-01T06:02:38.771Z,56.77
2016-10-01T06:03:04.511Z,56.77
2016-10-01T06:03:30.172Z,56.58
2016-10-01T06:03:55.745Z,56.48
2016-10-01T06:04:21.298Z,56.48
2016-10-01T06:04:46.894Z,56.96
2016-10-01T06:05:12.465Z,56.67
2016-10-01T06:05:38.022Z,56.96
2016-10-01T06:06:03.646Z,56.96
2016-10-01T06:06:29.188Z,56.96
2016-10-01T06:06:54.756Z,56.58
2016-10-01T06:07:20.302Z,56.96
2016-10-01T06:07:45.889Z,56.58
2016-10-01T06:08:11.486Z,56.77
2016-10-01T06:08:37.023Z,56.77
2016-10-01T06:09:02.576Z,56.87
2016-10-01T06:09:28.153Z,56.48
2016-10-01T06:09:53.690Z,56.77
2016-10-01T06:10:52.801Z,56.77
2016-10-01T06:11:18.369Z,56.77
2016-10-01T06:11:44.015Z,56.58
2016-10-01T06:12:09.578Z,56.77
2016-10-01T06:12:35.156Z,56.58
2016-10-01T06:13:00.731Z,56.77
2016-10-01T06:13:26.321Z,56.58
2016-10-01T06:13:51.893Z,56.58
2016-10-01T06:14:17.441Z,56.58
2016-10-01T06:14:43.003Z,56.77
2016-10-01T06:15:08.710Z,56.87
2016-10-01T06:15:34.262Z,56.38
2016-10-01T06:15:59.824Z,56.87
2016-10-01T06:16:25.382Z,56.77
2016-10-01T06:16:50.970Z,56.87
2016-10-01T06:17:16.529Z,56.87
2016-10-01T06:17:42.073Z,56.87
2016-10-01T06:18:07.648Z,56.77
2016-10-01T06:18:33.219Z,56.58
2016-10-01T06:18:58.807Z,56.67
2016-10-01T06:19:24.452Z,56.58
2016-10-01T06:19:50.169Z,56.58
2016-10-01T06:20:15.756Z,56.77
2016-10-01T06:20:41.298Z,56.77
2016-10-01T06:21:06.964Z,56.77
2016-10-01T06:21:32.532Z,56.67
2016-10-01T06:21:58.093Z,56.38
2016-10-01T06:22:23.685Z,56.96
2016-10-01T06:22:49.351Z,56.87
2016-10-01T06:23:14.906Z,56.87
2016-10-01T06:23:40.481Z,56.96
2016-10-01T06:24:06.234Z,56.87
2016-10-01T06:24:31.779Z,56.67
2016-10-01T06:24:57.334Z,56.58
2016-10-01T06:25:22.890Z,56.58
2016-10-01T06:25:48.428Z,56.48
2016-10-01T06:26:14.027Z,56.96
2016-10-01T06:26:39.816Z,57.06
2016-10-01T06:27:05.386Z,56.87
2016-10-01T06:27:30.944Z,56.87
2016-10-01T06:27:56.505Z,56.77
2016-10-01T06:28:22.080Z,56.38
2016-10-01T06:28:47.642Z,56.38
2016-10-01T06:29:13.332Z,56.2
2016-10-01T06:29:38.900Z,56.2
2016-10-01T06:30:04.464Z,55.9
2016-10-01T06:30:30.033Z,56.29
2016-10-01T06:30:55.592Z,56.29
2016-10-01T06:31:21.241Z,56.1
2016-10-01T06:31:46.838Z,56
2016-10-01T06:32:12.427Z,56
2016-10-01T06:32:37.979Z,55.9
2016-10-01T06:33:03.571Z,56
2016-10-01T06:33:29.770Z,56.03
2016-10-01T06:33:55.482Z,55.81
2016-10-01T06:34:21.042Z,55.9
2016-10-01T06:34:46.625Z,55.71
2016-10-01T06:35:12.278Z,55.83
2016-10-01T06:35:37.847Z,55.83
2016-10-01T06:36:03.563Z,56.03
2016-10-01T06:36:29.177Z,56.03
2016-10-01T06:36:54.860Z,55.71
2016-10-01T06:37:20.420Z,55.93
2016-10-01T06:37:45.975Z,55.93
2016-10-01T06:38:11.549Z,55.74
2016-10-01T06:38:37.149Z,55.83
2016-10-01T06:39:02.823Z,55.74
2016-10-01T06:39:28.465Z,55.83
2016-10-01T06:39:54.033Z,55.93
2016-10-01T06:40:19.634Z,55.93
2016-10-01T06:40:45.193Z,55.35
2016-10-01T06:41:10.850Z,55.93
2016-10-01T06:42:09.018Z,55.83
2016-10-01T06:42:35.099Z,55.45
2016-10-01T06:43:00.497Z,55.45
2016-10-01T06:43:26.230Z,55.55
2016-10-01T06:43:51.751Z,55.45
2016-10-01T06:44:17.305Z,55.35
2016-10-01T06:44:42.856Z,55.26
2016-10-01T06:45:08.411Z,55.35
2016-10-01T06:45:33.981Z,55.45
2016-10-01T06:45:59.719Z,55.45
2016-10-01T06:46:25.103Z,55.45
2016-10-01T06:46:50.661Z,55.07
2016-10-01T06:47:23.010Z,55.26
2016-10-01T06:47:48.591Z,55.16
2016-10-01T06:48:14.226Z,55.26
2016-10-01T06:48:39.888Z,55.26
2016-10-01T06:49:05.467Z,55.35
2016-10-01T06:49:31.039Z,55.07
2016-10-01T06:49:56.669Z,55.07
2016-10-01T06:50:22.304Z,55.07
2016-10-01T06:50:47.861Z,54.87
2016-10-01T06:51:13.558Z,55.26
2016-10-01T06:51:39.119Z,55.16
2016-10-01T06:52:04.694Z,55.26
2016-10-01T06:52:30.355Z,55.07
2016-10-01T06:52:56.190Z,55.16
2016-10-01T06:53:21.931Z,55.26
2016-10-01T06:53:47.518Z,55.26
2016-10-01T06:54:13.095Z,55.35
2016-10-01T06:54:38.669Z,55.26
2016-10-01T06:55:04.226Z,55.26
2016-10-01T06:55:29.793Z,55.07
2016-10-01T06:55:55.364Z,55.45
2016-10-01T06:56:20.953Z,55.26
2016-10-01T06:56:46.513Z,55.35
2016-10-01T06:57:12.289Z,55.07
2016-10-01T06:57:37.953Z,55.55
2016-10-01T06:58:03.628Z,55.55
2016-10-01T06:58:29.388Z,55.26
2016-10-01T06:58:54.825Z,55.35
2016-10-01T06:59:20.656Z,55.07
2016-10-01T06:59:46.389Z,55.07
2016-10-01T07:00:11.899Z,55.26
2016-10-01T07:01:10.028Z,55.16
2016-10-01T07:01:35.651Z,55.07
2016-10-01T07:02:01.173Z,55.07
2016-10-01T07:02:26.725Z,55.07
2016-10-01T07:02:52.300Z,54.78
2016-10-01T07:03:17.935Z,54.87
2016-10-01T07:03:43.488Z,55.16
2016-10-01T07:04:09.076Z,55.07
2016-10-01T07:05:07.415Z,54.78
2016-10-01T07:05:32.994Z,54.58
2016-10-01T07:05:58.566Z,54.68
2016-10-01T07:07:06.925Z,54.68
2016-10-01T07:07:32.512Z,54.68
2016-10-01T07:07:58.375Z,54.78
2016-10-01T07:08:23.949Z,54.58
2016-10-01T07:08:49.798Z,54.49
2016-10-01T07:09:15.455Z,54.68
2016-10-01T07:09:41.111Z,54.87
2016-10-01T07:10:06.650Z,54.78
2016-10-01T07:10:32.195Z,54.87
2016-10-01T07:10:57.759Z,54.58
2016-10-01T07:11:23.305Z,54.78
2016-10-01T07:12:16.277Z,54.68
2016-10-01T07:12:41.894Z,54.78
2016-10-01T07:13:07.444Z,54.87
2016-10-01T07:13:33.400Z,54.87
2016-10-01T07:13:58.970Z,54.68
2016-10-01T07:14:24.559Z,54.78
2016-10-01T07:14:50.128Z,54.78
2016-10-01T07:15:15.685Z,54.68
2016-10-01T07:15:41.293Z,54.58
2016-10-01T07:16:06.975Z,54.49
2016-10-01T07:16:32.523Z,54.87
2016-10-01T07:16:58.257Z,54.68
2016-10-01T07:17:23.823Z,54.39
2016-10-01T07:17:49.399Z,54.68
2016-10-01T07:18:14.952Z,54.61
2016-10-01T07:18:40.546Z,54.39
2016-10-01T07:19:06.141Z,54.58
2016-10-01T07:19:32.073Z,54.58
2016-10-01T07:19:57.645Z,54.58
2016-10-01T07:20:23.392Z,54.58
2016-10-01T07:20:48.958Z,54.39
2016-10-01T07:21:14.519Z,54.3
2016-10-01T07:21:40.210Z,54.39
2016-10-01T07:22:05.775Z,54.32
2016-10-01T07:22:31.333Z,54.3
2016-10-01T07:22:57.162Z,54.58
2016-10-01T07:23:22.540Z,54.3
2016-10-01T07:23:48.101Z,54.61
2016-10-01T07:24:13.684Z,54.58
2016-10-01T07:24:39.373Z,54.61
2016-10-01T07:25:04.938Z,54.3
2016-10-01T07:25:30.543Z,54.39
2016-10-01T07:25:56.126Z,54.52
2016-10-01T07:26:21.703Z,54.52
2016-10-01T07:26:47.271Z,54.1
2016-10-01T07:27:12.857Z,54.1
2016-10-01T07:27:38.433Z,54.39
2016-10-01T07:28:04.000Z,54
2016-10-01T07:28:29.577Z,54.1
2016-10-01T07:28:55.141Z,54.32
2016-10-01T07:29:20.829Z,54.52
2016-10-01T07:29:46.453Z,54.42
2016-10-01T07:30:12.023Z,54.52
2016-10-01T07:31:10.130Z,54.58
2016-10-01T07:31:35.709Z,54.61
2016-10-01T07:32:01.284Z,54.42
2016-10-01T07:32:26.864Z,54.42
2016-10-01T07:33:04.014Z,54.32
2016-10-01T07:33:29.631Z,54.32
2016-10-01T07:33:55.919Z,54.52
2016-10-01T07:34:21.513Z,54.42
2016-10-01T07:34:47.125Z,54.61
2016-10-01T07:35:13.305Z,54.42
2016-10-01T07:35:38.860Z,54.52
2016-10-01T07:36:05.057Z,54.52
2016-10-01T07:36:30.640Z,54.52
2016-10-01T07:36:56.871Z,54.61
2016-10-01T07:37:22.422Z,54.61
2016-10-01T07:37:47.970Z,54.61
2016-10-01T07:38:14.201Z,54.61
2016-10-01T07:38:39.796Z,54.61
2016-10-01T07:39:06.014Z,54.49
2016-10-01T07:39:31.580Z,54.32
2016-10-01T07:39:57.155Z,54.42
2016-10-01T07:40:23.323Z,54.22
2016-10-01T07:40:48.899Z,54.32
2016-10-01T07:41:15.151Z,53.84
2016-10-01T07:41:40.756Z,54.13
2016-10-01T07:42:06.932Z,54.03
2016-10-01T07:42:32.533Z,54.13
2016-10-01T07:42:58.100Z,53.94
2016-10-01T07:43:24.312Z,54.13
2016-10-01T07:43:49.890Z,54.03
2016-10-01T07:44:16.079Z,53.91
2016-10-01T07:44:41.641Z,53.74
2016-10-01T07:45:07.230Z,54.13
2016-10-01T07:45:33.617Z,54.03
2016-10-01T07:45:59.214Z,53.94
2016-10-01T07:46:25.270Z,53.65
2016-10-01T07:46:50.825Z,53.55
2016-10-01T07:47:17.049Z,53.84
2016-10-01T07:47:42.645Z,53.55
2016-10-01T07:48:08.209Z,53.74
2016-10-01T07:48:34.375Z,53.84
2016-10-01T07:48:59.942Z,53.94
2016-10-01T07:49:26.178Z,53.84
2016-10-01T07:49:51.906Z,53.74
2016-10-01T07:50:17.503Z,53.84
2016-10-01T07:50:43.683Z,53.74
2016-10-01T07:51:09.280Z,53.84
2016-10-01T07:51:35.309Z,53.84
2016-10-01T07:52:00.878Z,54.52
2016-10-01T07:52:27.131Z,53.94
2016-10-01T07:52:52.688Z,53.55
2016-10-01T07:53:18.305Z,54.32
2016-10-01T07:53:44.457Z,53.74
2016-10-01T07:54:10.007Z,53.55
2016-10-01T07:55:08.228Z,53.36
2016-10-01T07:55:33.971Z,53.65
2016-10-01T07:55:59.542Z,53.55
2016-10-01T07:56:25.160Z,53.65
2016-10-01T07:56:50.754Z,53.55
2016-10-01T07:57:16.325Z,53.74
2016-10-01T07:57:41.913Z,53.55
2016-10-01T07:58:07.552Z,53.84
2016-10-01T07:58:33.102Z,53.74
2016-10-01T07:58:58.794Z,53.74
2016-10-01T07:59:24.378Z,53.84
2016-10-01T07:59:49.929Z,53.65
2016-10-01T08:00:15.535Z,54.03
2016-10-01T08:00:41.151Z,53.65
2016-10-01T08:01:06.721Z,54.03
2016-10-01T08:01:32.294Z,53.84
2016-10-01T08:01:57.888Z,54.03
2016-10-01T08:02:23.453Z,54.13
2016-10-01T08:02:49.215Z,53.55
2016-10-01T08:03:14.766Z,53.65
2016-10-01T08:03:40.334Z,53.17
2016-10-01T08:04:05.908Z,53.74
2016-10-01T08:04:31.526Z,53.55
2016-10-01T08:04:57.172Z,53.65
2016-10-01T08:05:22.732Z,53.55
2016-10-01T08:05:48.296Z,53.55
2016-10-01T08:06:13.868Z,53.65
2016-10-01T08:06:39.484Z,53.27
2016-10-01T08:07:05.044Z,53.45
2016-10-01T08:07:30.632Z,53.27
2016-10-01T08:07:56.195Z,53.27
2016-10-01T08:08:21.786Z,53.36
2016-10-01T08:08:47.342Z,53.07
2016-10-01T08:09:12.900Z,53.07
2016-10-01T08:09:38.607Z,53.27
2016-10-01T08:10:04.395Z,53.27
2016-10-01T08:10:29.975Z,53.17
2016-10-01T08:10:55.535Z,53.07
2016-10-01T08:11:21.109Z,53.17
2016-10-01T08:11:46.782Z,53.17
2016-10-01T08:12:12.325Z,52.97
2016-10-01T08:12:37.891Z,53.29
2016-10-01T08:13:03.529Z,53.27
2016-10-01T08:13:29.292Z,53.29
2016-10-01T08:13:54.857Z,53.09
2016-10-01T08:14:20.441Z,52.97
2016-10-01T08:14:45.984Z,53.45
2016-10-01T08:15:11.648Z,53.09
2016-10-01T08:15:37.238Z,53.17
2016-10-01T08:16:02.794Z,53.19
2016-10-01T08:16:28.339Z,52.81
2016-10-01T08:16:53.890Z,52.91
2016-10-01T08:17:19.521Z,53.09
2016-10-01T08:17:45.025Z,53.09
2016-10-01T08:18:10.640Z,53
2016-10-01T08:18:36.196Z,53.19
2016-10-01T08:19:01.773Z,53.39
2016-10-01T08:19:27.402Z,53.39
2016-10-01T08:19:52.968Z,53.29
2016-10-01T08:20:18.534Z,52.91
2016-10-01T08:20:44.173Z,52.61
2016-10-01T08:21:09.724Z,52.81
2016-10-01T08:21:35.299Z,52.81
2016-10-01T08:22:00.924Z,52.91
2016-10-01T08:22:26.542Z,52.61
2016-10-01T08:23:40.165Z,53
2016-10-01T08:24:05.831Z,52.81
2016-10-01T08:24:31.443Z,52.81
2016-10-01T08:24:57.002Z,52.61
2016-10-01T08:25:22.581Z,53
2016-10-01T08:25:48.157Z,53
2016-10-01T08:26:13.722Z,52.71
2016-10-01T08:26:39.271Z,53.09
2016-10-01T08:27:04.845Z,53
2016-10-01T08:27:30.387Z,52.91
2016-10-01T08:27:56.060Z,52.91
2016-10-01T08:28:21.697Z,52.52
2016-10-01T08:28:47.292Z,52.81
2016-10-01T08:29:12.850Z,53.09
2016-10-01T08:29:38.426Z,52.81
2016-10-01T08:30:46.743Z,52.71
2016-10-01T08:31:55.034Z,52.33
2016-10-01T08:32:20.609Z,52.33
2016-10-01T08:32:46.223Z,52.42
2016-10-01T08:33:11.794Z,52.42
2016-10-01T08:33:37.361Z,52.71
2016-10-01T08:34:02.917Z,52.33
2016-10-01T08:34:28.472Z,52.23
2016-10-01T08:34:54.047Z,52.33
2016-10-01T08:35:19.608Z,52.33
2016-10-01T08:35:45.188Z,52.33
2016-10-01T08:36:10.731Z,52.33
2016-10-01T08:36:36.383Z,52.33
2016-10-01T08:37:01.952Z,52.33
2016-10-01T08:37:27.537Z,52.13
2016-10-01T08:37:53.096Z,52.13
2016-10-01T08:38:18.663Z,52.42
2016-10-01T08:38:44.218Z,51.94
2016-10-01T08:39:09.796Z,52.04
2016-10-01T08:39:35.403Z,52.33
2016-10-01T08:40:00.994Z,52.13
2016-10-01T08:40:26.549Z,52.33
2016-10-01T08:40:52.139Z,52.13
2016-10-01T08:41:17.728Z,51.75
2016-10-01T08:41:43.292Z,52.04
2016-10-01T08:42:08.877Z,52.06
2016-10-01T08:42:34.516Z,51.75
2016-10-01T08:43:00.090Z,51.94
2016-10-01T08:43:25.672Z,51.94
2016-10-01T08:43:51.242Z,52.13
2016-10-01T08:44:16.836Z,52.13
2016-10-01T08:44:42.386Z,52.16
2016-10-01T08:45:07.939Z,51.97
2016-10-01T08:45:33.530Z,52.35
2016-10-01T08:45:59.074Z,52.25
2016-10-01T08:46:24.700Z,52.06
2016-10-01T08:46:50.283Z,52.06
2016-10-01T08:47:15.842Z,52.25
2016-10-01T08:47:41.396Z,52.04
2016-10-01T08:48:06.960Z,52.16
2016-10-01T08:48:32.555Z,52.16
2016-10-01T08:48:58.251Z,51.97
2016-10-01T08:49:23.832Z,51.87
2016-10-01T08:49:49.413Z,51.87
2016-10-01T08:50:14.989Z,51.77
2016-10-01T08:50:40.557Z,51.97
2016-10-01T08:51:06.130Z,51.97
2016-10-01T08:51:31.703Z,51.68
2016-10-01T08:51:57.336Z,51.87
2016-10-01T08:52:22.902Z,51.97
2016-10-01T08:52:48.519Z,51.87
2016-10-01T08:53:14.114Z,51.97
2016-10-01T08:53:39.872Z,51.97
2016-10-01T08:54:05.435Z,52.06
2016-10-01T08:54:31.006Z,51.97
2016-10-01T08:54:56.625Z,52.06
2016-10-01T08:55:22.331Z,52.16
2016-10-01T08:55:47.904Z,51.97
2016-10-01T08:56:13.556Z,51.68
2016-10-01T08:56:39.149Z,51.58
2016-10-01T08:57:04.725Z,51.68
2016-10-01T08:57:30.349Z,51.58
2016-10-01T08:57:55.981Z,51.58
2016-10-01T08:58:21.534Z,51.58
2016-10-01T08:58:47.107Z,51.68
2016-10-01T08:59:12.710Z,51.87
2016-10-01T08:59:38.358Z,51.68
2016-10-01T09:00:03.923Z,51.48
2016-10-01T09:00:29.487Z,51.48
2016-10-01T09:00:55.220Z,51.68
2016-10-01T09:01:20.772Z,51.48
2016-10-01T09:01:46.340Z,51.48
2016-10-01T09:02:11.902Z,51.58
2016-10-01T09:02:37.448Z,51.58
2016-10-01T09:03:03.041Z,51.58
2016-10-01T09:03:28.633Z,51.48
2016-10-01T09:03:54.231Z,51.39
2016-10-01T09:04:19.800Z,51.68
2016-10-01T09:04:45.367Z,51.68
2016-10-01T09:05:10.945Z,51.39
2016-10-01T09:05:36.514Z,51.58
2016-10-01T09:06:02.077Z,51.68
2016-10-01T09:06:27.630Z,51.77
2016-10-01T09:06:53.217Z,51.68
2016-10-01T09:07:18.770Z,51.68
2016-10-01T09:07:44.342Z,51.58
2016-10-01T09:08:09.917Z,51.77
2016-10-01T09:08:35.490Z,51.77
2016-10-01T09:09:01.074Z,51.77
2016-10-01T09:09:26.654Z,51.77
2016-10-01T09:09:52.273Z,51.48
2016-10-01T09:10:17.864Z,51.87
2016-10-01T09:10:43.412Z,51.58
2016-10-01T09:11:08.977Z,51.39
2016-10-01T09:11:34.530Z,51.2
2016-10-01T09:12:00.119Z,51.39
2016-10-01T09:12:25.705Z,51.58
2016-10-01T09:12:51.277Z,51.68
2016-10-01T09:13:16.833Z,51.58
2016-10-01T09:13:42.498Z,51.58
2016-10-01T09:14:08.053Z,51.58
2016-10-01T09:14:33.629Z,51.77
2016-10-01T09:14:59.215Z,51.77
2016-10-01T09:15:25.122Z,51.41
2016-10-01T09:15:50.778Z,51.1
2016-10-01T09:16:16.335Z,51.03
2016-10-01T09:16:41.953Z,50.93
2016-10-01T09:17:07.533Z,50.93
2016-10-01T09:17:33.099Z,50.74
2016-10-01T09:17:58.678Z,51
2016-10-01T09:18:24.233Z,51.03
2016-10-01T09:18:49.813Z,50.93
2016-10-01T09:19:15.552Z,50.54
2016-10-01T09:19:41.112Z,51.12
2016-10-01T09:20:06.675Z,50.84
2016-10-01T09:20:32.241Z,50.93
2016-10-01T09:20:57.837Z,50.93
2016-10-01T09:21:23.387Z,50.84
2016-10-01T09:21:48.906Z,50.93
2016-10-01T09:22:14.683Z,51.03
2016-10-01T09:22:40.574Z,51.12
2016-10-01T09:23:06.122Z,51.03
2016-10-01T09:23:31.711Z,51.03
2016-10-01T09:23:57.270Z,51.03
2016-10-01T09:24:22.988Z,51.03
2016-10-01T09:24:48.653Z,50.84
2016-10-01T09:25:14.201Z,50.74
2016-10-01T09:25:39.861Z,50.45
2016-10-01T09:26:05.447Z,50.54
2016-10-01T09:26:31.151Z,50.74
2016-10-01T09:26:56.764Z,50.64
2016-10-01T09:27:22.340Z,50.84
2016-10-01T09:27:47.966Z,50.74
2016-10-01T09:28:13.711Z,50.64
2016-10-01T09:28:39.292Z,50.84
2016-10-01T09:29:04.942Z,50.84
2016-10-01T09:29:30.520Z,50.64
2016-10-01T09:29:56.200Z,50.74
2016-10-01T09:30:21.886Z,50.64
2016-10-01T09:30:47.434Z,50.45
2016-10-01T09:31:13.007Z,50.54
2016-10-01T09:31:38.587Z,50.35
2016-10-01T09:32:04.242Z,50.45
2016-10-01T09:32:29.898Z,50.54
2016-10-01T09:32:55.484Z,50.45
2016-10-01T09:33:21.086Z,50.54
2016-10-01T09:33:46.664Z,50.26
2016-10-01T09:34:12.346Z,50.16
2016-10-01T09:34:37.960Z,50.35
2016-10-01T09:35:03.526Z,50.16
2016-10-01T09:36:11.895Z,50.26
2016-10-01T09:36:37.501Z,50.16
2016-10-01T09:37:03.088Z,50.45
2016-10-01T09:37:28.650Z,50.35
2016-10-01T09:37:54.225Z,50.26
2016-10-01T09:38:20.532Z,50.26
2016-10-01T09:38:46.300Z,50.54
2016-10-01T09:39:11.860Z,50.45